Main page
METAR-TAF:

METAR-TAF

Airports :

Plovdiv Airport

Plovdiv, Bulgaria

latitude: 42-08N, longitude: 024-45E, elevation: 179 m

Current weather observation

The report was made 33 minutes ago, at 00:30 UTC
Wind 1 kt from variable directions
Temperature 2°C
Humidity 80%
Pressure 1025 hPa
Visibility 10 km or more

METAR: LBPD 110030Z AUTO VRB01KT 9999 NCD 02/M01 Q1025

Time: 04:03 (01:03 UTC)

Forecast

The report was made 2 hours and 3 minutes ago, at 23:00 UTC
Forecast valid from 11 at 00 UTC to 11 at 24 UTC
Wind 4 kt from variable directions
Visibility 10 km or more
no clouds below 1500 m and no cumulonimbus

TAF: LBPD 102300Z 1100/1124 VRB04KT CAVOK

Weather observations and forecasts of more than 4000 airports (METAR and TAF reports).

The available stations are represented by yellow and red dots on the map.

Hover mouse over dot to see the name of the station.

Then click to see weather observations and forecasts.

To change the map : click on the green buttons with a black cross to zoom in, on the green button with a dash to zoom out, or on the green arrows for adjacent maps.


METAR-TAF: